Airport ID:KRVF
Update Time (UTC):10/04/2021 12:20
Wind Speed (Knots):10
Wind Direction (Magnetic):150
Temperature (°C):0
Dew Point (°C):-11
Humidity (%):46
Altimeter (inHg):29.81
Density Altitude (Feet):
Visibility:10+
Clouds (Hundreds of feet):CLR
Present Weather:
METAR:METAR KRVF 101220Z AUTO 16009KT 10SM CLR M00/M11 A2981 RMK AO2

The data displayed is for advisory purposes only and is not to be used for flight planning or operations.